»·PEaware :: KENT07 KSPS-KSPS

KENT07 :: KSPS-KSPS

FLIGHT INFORMATION

Flight Status: Arrived
Operator: Unknown
More flights by this operator :: More flights under this callsign
Pilot: 80 FTW ENJJPT (22981)
Aircraft: Unknown
(T-38)
More flights by this aircraft type
Origin: KSPS Sheppard AFB/Wichita Falls Mu
United States
Destination: KSPS Sheppard AFB/Wichita Falls Mu
United States
More flights between these airports :: More routes between these airports
Route: +4707
File this flight plan on PilotEdge
Remarks:
Altitude:
(Current/Filed)
0ft
Speed:
(Current/Filed)
0kts
Departed: 04-Aug-20 10:15 AM
Arrived: 04-Aug-20 11:06 AM
Distance/Time
Traveled:
1nm/0:51
Distance/Time
To Go:
Arrived

Flight Plot

Page will automatically refresh every two minutes.

Flight plan parsing failed; only flown route is shown


Map Options




Map Legend


Flown Route
Filed Route
Departure Airport
Arrival Airport
Navaid (VOR, NDB)
Fix

Horizontal Profiles

Position Reports

Time Latitude Longitude Heading Altitude Ground
Speed
04-Aug-20 10:00 34.003349 -98.501599 127 1027ft 0kts
04-Aug-20 10:01 34.003348 -98.501597 127 1027ft 0kts
04-Aug-20 10:02 34.003347 -98.501596 127 1027ft 0kts
04-Aug-20 10:03 34.003346 -98.501595 127 1027ft 0kts
04-Aug-20 10:04 34.003346 -98.501593 127 1027ft 0kts
04-Aug-20 10:05 34.003345 -98.501592 127 1027ft 0kts
04-Aug-20 10:06 34.003344 -98.501591 127 1027ft 0kts
04-Aug-20 10:07 34.003343 -98.501590 127 1027ft 0kts
04-Aug-20 10:08 34.003342 -98.501588 127 1027ft 0kts
04-Aug-20 10:09 34.003342 -98.501587 127 1027ft 0kts
04-Aug-20 10:10 34.003341 -98.501586 127 1027ft 0kts
04-Aug-20 10:11 34.003340 -98.501585 127 1027ft 0kts
04-Aug-20 10:12 34.003703 -98.499582 62 1027ft 6kts
04-Aug-20 10:13 34.003471 -98.499353 159 1027ft 0kts
04-Aug-20 10:14 33.963595 -98.480530 158 2275ft 299kts
04-Aug-20 10:15 33.883567 -98.477711 230 6048ft 343kts
04-Aug-20 10:16 33.877533 -98.597132 264 10342ft 413kts
04-Aug-20 10:17 33.863227 -98.740256 258 15198ft 443kts
04-Aug-20 10:18 33.841530 -98.860094 259 16003ft 443kts
04-Aug-20 10:19 33.821821 -99.009356 262 16003ft 461kts
04-Aug-20 10:20 33.763946 -99.112787 186 15808ft 406kts
04-Aug-20 10:21 33.685139 -99.061970 138 17536ft 406kts
04-Aug-20 10:22 33.590827 -98.998488 217 19440ft 441kts
04-Aug-20 10:23 33.582987 -99.051394 41 15252ft 512kts
04-Aug-20 10:24 33.569978 -99.108370 221 10712ft 541kts
04-Aug-20 10:25 33.569978 -99.108370 221 10712ft 541kts
04-Aug-20 10:26 33.556899 -99.123890 238 11033ft 516kts
04-Aug-20 10:27 33.612762 -99.227140 17 18356ft 420kts
04-Aug-20 10:28 33.678787 -99.092317 65 19717ft 551kts
04-Aug-20 10:29 33.655284 -99.040624 249 18164ft 542kts
04-Aug-20 10:30 33.666981 -99.042526 228 11590ft 435kts
04-Aug-20 10:31 33.567199 -99.169163 199 11896ft 556kts
04-Aug-20 10:32 33.583747 -99.059127 126 19160ft 270kts
04-Aug-20 10:33 33.615722 -99.079041 327 9956ft 487kts
04-Aug-20 10:34 33.615722 -99.079041 327 9956ft 487kts
04-Aug-20 10:35 33.664683 -99.115904 328 14048ft 313kts
04-Aug-20 10:36 33.651386 -99.173275 242 10094ft 502kts
04-Aug-20 10:37 33.592756 -99.107402 34 17342ft 175kts
04-Aug-20 10:38 33.534727 -99.096437 140 11848ft 470kts
04-Aug-20 10:39 33.613360 -99.067171 300 16016ft 200kts
04-Aug-20 10:40 33.649323 -99.044630 175 10972ft 471kts
04-Aug-20 10:41 33.557964 -99.136639 171 15617ft 243kts
04-Aug-20 10:42 33.526670 -99.170647 24 10122ft 381kts
04-Aug-20 10:43 33.620757 -99.119478 24 11410ft 366kts
04-Aug-20 10:44 33.717025 -99.085419 12 12044ft 345kts
04-Aug-20 10:45 33.812892 -99.049117 38 11891ft 366kts
04-Aug-20 10:46 33.853261 -98.942130 69 11630ft 349kts
04-Aug-20 10:47 33.924961 -98.866231 45 7916ft 365kts
04-Aug-20 10:48 33.991353 -98.785837 45 5405ft 325kts
04-Aug-20 10:49 34.052236 -98.710580 45 3108ft 300kts
04-Aug-20 10:50 34.119262 -98.650656 26 3216ft 294kts
04-Aug-20 10:51 34.158498 -98.586444 104 2162ft 258kts
04-Aug-20 10:52 34.107790 -98.544775 162 2162ft 217kts
04-Aug-20 10:53 34.056752 -98.521416 158 2005ft 196kts
04-Aug-20 10:54 34.007925 -98.497953 157 1052ft 181kts
04-Aug-20 10:55 33.953168 -98.493499 296 2508ft 217kts
04-Aug-20 10:56 34.008473 -98.533037 337 2711ft 196kts
04-Aug-20 10:57 34.002719 -98.498978 158 1032ft 160kts
04-Aug-20 10:58 33.995512 -98.495517 158 1040ft 169kts
04-Aug-20 10:59 33.957598 -98.498671 312 2602ft 245kts
04-Aug-20 11:00 34.008012 -98.533251 333 2631ft 195kts
04-Aug-20 11:01 34.004653 -98.499867 158 1039ft 162kts
04-Aug-20 11:02 33.962017 -98.501061 302 2518ft 244kts
04-Aug-20 11:03 34.015416 -98.535558 12 2264ft 194kts
04-Aug-20 11:04 33.999237 -98.497370 158 1032ft 144kts
04-Aug-20 11:05 33.981883 -98.489051 159 1027ft 31kts
04-Aug-20 11:06 33.977822 -98.488626 246 1027ft 0kts
04-Aug-20 11:07 33.977722 -98.488909 247 1027ft 14kts

Navigation Log

Ident Type
Flight plan parsing failed, navigation log unavailable